Victoria, Alabama
Current Conditions -  °F | °C
As of 10:16 AM on Sunday 23 Nov 2014 (Local Time) from KSXS Reporting Station
Rain Showers Rain Showers  
Wind Chill: 68°   Ceiling: 400
Heat Index: 68°   Visibility: 7mi
Dew Point: 66°   Wind: 10mph
Humidity: 94%   Direction: 140°SE
Pressure: 29.83"   Gusts: NA
Location:  31.5584°N, 86.0569°W
Report Text: KSXS 231616Z AUTO 14009KT 7SM -SHRA SCT002 BKN004 20/19 A2983 RMK AO2 LTG DSNT NW CIG 002V004
Loading
Personal Weather Stations






























Interactive Weather Map New forecast layout! Learn more

10-Day Weather Forecast

Advertisements
Track Severe Weather on mobile